sensor_id;sensor_type;location;lat;lon;timestamp;P1;durP1;ratioP1;P2;durP2;ratioP2
68803;SDS011;55787;52.678;13.314;2023-04-15T00:01:09;33.58;;;14.13;;
68803;SDS011;55787;52.678;13.314;2023-04-15T00:03:37;31.25;;;13.30;;
68803;SDS011;55787;52.678;13.314;2023-04-15T00:06:04;36.55;;;14.20;;
68803;SDS011;55787;52.678;13.314;2023-04-15T00:08:31;35.08;;;14.00;;
68803;SDS011;55787;52.678;13.314;2023-04-15T00:10:57;36.63;;;14.38;;
68803;SDS011;55787;52.678;13.314;2023-04-15T00:13:28;36.30;;;15.18;;
68803;SDS011;55787;52.678;13.314;2023-04-15T00:15:55;38.63;;;15.27;;
68803;SDS011;55787;52.678;13.314;2023-04-15T00:18:22;37.17;;;15.50;;
68803;SDS011;55787;52.678;13.314;2023-04-15T00:20:49;37.47;;;14.52;;
68803;SDS011;55787;52.678;13.314;2023-04-15T00:23:16;38.08;;;15.70;;
68803;SDS011;55787;52.678;13.314;2023-04-15T00:25:43;36.35;;;14.65;;
68803;SDS011;55787;52.678;13.314;2023-04-15T00:28:10;32.53;;;14.15;;
68803;SDS011;55787;52.678;13.314;2023-04-15T00:30:37;37.67;;;15.38;;
68803;SDS011;55787;52.678;13.314;2023-04-15T00:33:04;34.83;;;15.05;;
68803;SDS011;55787;52.678;13.314;2023-04-15T00:35:31;38.42;;;15.65;;
68803;SDS011;55787;52.678;13.314;2023-04-15T00:37:58;37.80;;;16.02;;
68803;SDS011;55787;52.678;13.314;2023-04-15T00:40:25;40.97;;;15.85;;
68803;SDS011;55787;52.678;13.314;2023-04-15T00:42:53;41.55;;;16.70;;
68803;SDS011;55787;52.678;13.314;2023-04-15T00:45:19;43.08;;;16.60;;
68803;SDS011;55787;52.678;13.314;2023-04-15T00:47:46;46.08;;;17.48;;
68803;SDS011;55787;52.678;13.314;2023-04-15T00:50:13;46.88;;;16.88;;
68803;SDS011;55787;52.678;13.314;2023-04-15T00:52:39;46.15;;;17.10;;
68803;SDS011;55787;52.678;13.314;2023-04-15T00:55:07;47.22;;;18.40;;
68803;SDS011;55787;52.678;13.314;2023-04-15T00:57:35;41.92;;;17.75;;
68803;SDS011;55787;52.678;13.314;2023-04-15T01:00:02;45.00;;;17.23;;
68803;SDS011;55787;52.678;13.314;2023-04-15T01:02:34;44.92;;;16.60;;
68803;SDS011;55787;52.678;13.314;2023-04-15T01:05:02;46.10;;;17.63;;
68803;SDS011;55787;52.678;13.314;2023-04-15T01:07:30;43.38;;;17.13;;
68803;SDS011;55787;52.678;13.314;2023-04-15T01:09:58;48.28;;;18.52;;
68803;SDS011;55787;52.678;13.314;2023-04-15T01:12:25;46.15;;;18.90;;
68803;SDS011;55787;52.678;13.314;2023-04-15T01:14:53;47.08;;;18.02;;
68803;SDS011;55787;52.678;13.314;2023-04-15T01:17:20;49.05;;;18.25;;
68803;SDS011;55787;52.678;13.314;2023-04-15T01:19:47;49.92;;;17.92;;
68803;SDS011;55787;52.678;13.314;2023-04-15T01:22:15;48.03;;;18.50;;
68803;SDS011;55787;52.678;13.314;2023-04-15T01:24:48;51.92;;;19.10;;
68803;SDS011;55787;52.678;13.314;2023-04-15T01:27:20;45.92;;;17.88;;
68803;SDS011;55787;52.678;13.314;2023-04-15T01:29:48;48.63;;;18.23;;
68803;SDS011;55787;52.678;13.314;2023-04-15T01:32:14;45.90;;;18.58;;
68803;SDS011;55787;52.678;13.314;2023-04-15T01:34:42;50.40;;;17.63;;
68803;SDS011;55787;52.678;13.314;2023-04-15T01:37:08;46.85;;;18.00;;
68803;SDS011;55787;52.678;13.314;2023-04-15T01:39:35;51.13;;;19.20;;
68803;SDS011;55787;52.678;13.314;2023-04-15T01:42:01;53.95;;;19.55;;
68803;SDS011;55787;52.678;13.314;2023-04-15T01:44:29;47.50;;;17.85;;
68803;SDS011;55787;52.678;13.314;2023-04-15T01:46:56;55.53;;;19.13;;
68803;SDS011;55787;52.678;13.314;2023-04-15T01:49:22;52.55;;;19.20;;
68803;SDS011;55787;52.678;13.314;2023-04-15T01:51:49;47.03;;;18.35;;
68803;SDS011;55787;52.678;13.314;2023-04-15T01:54:16;46.55;;;18.20;;
68803;SDS011;55787;52.678;13.314;2023-04-15T01:56:42;50.40;;;19.90;;
68803;SDS011;55787;52.678;13.314;2023-04-15T01:59:09;48.03;;;17.63;;
68803;SDS011;55787;52.678;13.314;2023-04-15T02:01:35;47.80;;;18.70;;
68803;SDS011;55787;52.678;13.314;2023-04-15T02:04:02;46.72;;;18.13;;
68803;SDS011;55787;52.678;13.314;2023-04-15T02:06:29;49.33;;;18.15;;
68803;SDS011;55787;52.678;13.314;2023-04-15T02:08:55;49.33;;;18.27;;
68803;SDS011;55787;52.678;13.314;2023-04-15T02:11:22;44.80;;;17.33;;
68803;SDS011;55787;52.678;13.314;2023-04-15T02:13:49;47.05;;;17.73;;
68803;SDS011;55787;52.678;13.314;2023-04-15T02:16:16;53.03;;;18.98;;
68803;SDS011;55787;52.678;13.314;2023-04-15T02:18:45;51.45;;;19.70;;
68803;SDS011;55787;52.678;13.314;2023-04-15T02:21:12;50.28;;;18.13;;
68803;SDS011;55787;52.678;13.314;2023-04-15T02:23:40;51.60;;;18.88;;
68803;SDS011;55787;52.678;13.314;2023-04-15T02:26:06;53.28;;;18.83;;
68803;SDS011;55787;52.678;13.314;2023-04-15T02:28:33;50.17;;;18.45;;
68803;SDS011;55787;52.678;13.314;2023-04-15T02:31:03;53.47;;;19.45;;
68803;SDS011;55787;52.678;13.314;2023-04-15T02:33:31;48.38;;;18.55;;
68803;SDS011;55787;52.678;13.314;2023-04-15T02:35:58;44.85;;;17.60;;
68803;SDS011;55787;52.678;13.314;2023-04-15T02:38:25;51.40;;;18.10;;
68803;SDS011;55787;52.678;13.314;2023-04-15T02:40:52;45.20;;;17.45;;
68803;SDS011;55787;52.678;13.314;2023-04-15T02:43:18;49.60;;;18.73;;
68803;SDS011;55787;52.678;13.314;2023-04-15T02:45:45;49.35;;;17.77;;
68803;SDS011;55787;52.678;13.314;2023-04-15T02:48:12;49.67;;;18.27;;
68803;SDS011;55787;52.678;13.314;2023-04-15T02:50:39;48.40;;;18.40;;
68803;SDS011;55787;52.678;13.314;2023-04-15T02:53:06;48.53;;;18.35;;
68803;SDS011;55787;52.678;13.314;2023-04-15T02:55:33;46.78;;;18.45;;
68803;SDS011;55787;52.678;13.314;2023-04-15T02:57:59;48.35;;;18.95;;
68803;SDS011;55787;52.678;13.314;2023-04-15T03:00:26;47.85;;;17.90;;
68803;SDS011;55787;52.678;13.314;2023-04-15T03:02:57;50.55;;;18.85;;
68803;SDS011;55787;52.678;13.314;2023-04-15T03:05:25;53.30;;;19.58;;
68803;SDS011;55787;52.678;13.314;2023-04-15T03:07:52;47.63;;;18.30;;
68803;SDS011;55787;52.678;13.314;2023-04-15T03:10:19;48.30;;;18.27;;
68803;SDS011;55787;52.678;13.314;2023-04-15T03:12:46;51.00;;;19.27;;
68803;SDS011;55787;52.678;13.314;2023-04-15T03:15:13;49.53;;;18.80;;
68803;SDS011;55787;52.678;13.314;2023-04-15T03:17:41;49.42;;;18.30;;
68803;SDS011;55787;52.678;13.314;2023-04-15T03:20:08;50.20;;;18.38;;
68803;SDS011;55787;52.678;13.314;2023-04-15T03:22:35;50.85;;;18.75;;
68803;SDS011;55787;52.678;13.314;2023-04-15T03:25:02;46.10;;;18.35;;
68803;SDS011;55787;52.678;13.314;2023-04-15T03:27:29;53.33;;;19.23;;
68803;SDS011;55787;52.678;13.314;2023-04-15T03:29:55;47.58;;;19.00;;
68803;SDS011;55787;52.678;13.314;2023-04-15T03:32:22;48.47;;;18.55;;
68803;SDS011;55787;52.678;13.314;2023-04-15T03:34:49;47.70;;;18.30;;
68803;SDS011;55787;52.678;13.314;2023-04-15T03:37:15;46.10;;;18.63;;
68803;SDS011;55787;52.678;13.314;2023-04-15T03:39:42;47.45;;;18.30;;
68803;SDS011;55787;52.678;13.314;2023-04-15T03:42:09;45.72;;;17.33;;
68803;SDS011;55787;52.678;13.314;2023-04-15T03:44:36;48.08;;;18.70;;
68803;SDS011;55787;52.678;13.314;2023-04-15T03:47:03;45.37;;;18.07;;
68803;SDS011;55787;52.678;13.314;2023-04-15T03:49:29;44.25;;;18.27;;
68803;SDS011;55787;52.678;13.314;2023-04-15T03:51:56;44.10;;;17.88;;
68803;SDS011;55787;52.678;13.314;2023-04-15T03:54:23;41.75;;;17.58;;
68803;SDS011;55787;52.678;13.314;2023-04-15T03:56:49;45.35;;;18.15;;
68803;SDS011;55787;52.678;13.314;2023-04-15T03:59:16;45.58;;;18.17;;
68803;SDS011;55787;52.678;13.314;2023-04-15T04:01:43;43.50;;;17.83;;
68803;SDS011;55787;52.678;13.314;2023-04-15T04:04:09;47.33;;;17.90;;
68803;SDS011;55787;52.678;13.314;2023-04-15T04:06:36;48.38;;;19.00;;
68803;SDS011;55787;52.678;13.314;2023-04-15T04:09:03;45.05;;;17.52;;
68803;SDS011;55787;52.678;13.314;2023-04-15T04:11:30;48.40;;;18.17;;
68803;SDS011;55787;52.678;13.314;2023-04-15T04:13:58;44.55;;;17.85;;
68803;SDS011;55787;52.678;13.314;2023-04-15T04:16:24;47.88;;;18.77;;
68803;SDS011;55787;52.678;13.314;2023-04-15T04:18:51;51.22;;;18.75;;
68803;SDS011;55787;52.678;13.314;2023-04-15T04:21:18;46.72;;;18.38;;
68803;SDS011;55787;52.678;13.314;2023-04-15T04:23:46;47.13;;;18.38;;
68803;SDS011;55787;52.678;13.314;2023-04-15T04:26:12;47.80;;;17.85;;
68803;SDS011;55787;52.678;13.314;2023-04-15T04:28:39;44.92;;;17.30;;
68803;SDS011;55787;52.678;13.314;2023-04-15T04:31:06;43.80;;;18.00;;
68803;SDS011;55787;52.678;13.314;2023-04-15T04:33:33;47.42;;;18.52;;
68803;SDS011;55787;52.678;13.314;2023-04-15T04:36:02;45.85;;;18.08;;
68803;SDS011;55787;52.678;13.314;2023-04-15T04:38:29;48.92;;;18.58;;
68803;SDS011;55787;52.678;13.314;2023-04-15T04:40:55;44.35;;;18.42;;
68803;SDS011;55787;52.678;13.314;2023-04-15T04:43:22;46.90;;;18.10;;
68803;SDS011;55787;52.678;13.314;2023-04-15T04:45:49;45.03;;;17.40;;
68803;SDS011;55787;52.678;13.314;2023-04-15T04:48:16;46.90;;;18.17;;
68803;SDS011;55787;52.678;13.314;2023-04-15T04:50:43;42.83;;;16.65;;
68803;SDS011;55787;52.678;13.314;2023-04-15T04:53:10;47.80;;;18.25;;
68803;SDS011;55787;52.678;13.314;2023-04-15T04:55:37;44.45;;;17.45;;
68803;SDS011;55787;52.678;13.314;2023-04-15T04:58:04;42.45;;;17.75;;
68803;SDS011;55787;52.678;13.314;2023-04-15T05:00:31;41.73;;;17.07;;
68803;SDS011;55787;52.678;13.314;2023-04-15T05:02:57;41.08;;;17.20;;
68803;SDS011;55787;52.678;13.314;2023-04-15T05:05:24;44.38;;;16.80;;
68803;SDS011;55787;52.678;13.314;2023-04-15T05:07:51;42.47;;;17.05;;
68803;SDS011;55787;52.678;13.314;2023-04-15T05:10:18;43.60;;;17.63;;
68803;SDS011;55787;52.678;13.314;2023-04-15T05:12:45;39.53;;;16.47;;
68803;SDS011;55787;52.678;13.314;2023-04-15T05:15:12;40.75;;;16.27;;
68803;SDS011;55787;52.678;13.314;2023-04-15T05:17:38;43.05;;;16.25;;
68803;SDS011;55787;52.678;13.314;2023-04-15T05:20:05;36.83;;;15.40;;
68803;SDS011;55787;52.678;13.314;2023-04-15T05:22:32;36.53;;;15.18;;
68803;SDS011;55787;52.678;13.314;2023-04-15T05:24:59;37.13;;;16.15;;
68803;SDS011;55787;52.678;13.314;2023-04-15T05:27:26;34.20;;;14.93;;
68803;SDS011;55787;52.678;13.314;2023-04-15T05:29:53;34.65;;;15.07;;
68803;SDS011;55787;52.678;13.314;2023-04-15T05:32:19;32.50;;;14.98;;
68803;SDS011;55787;52.678;13.314;2023-04-15T05:34:46;35.92;;;15.15;;
68803;SDS011;55787;52.678;13.314;2023-04-15T05:37:13;31.58;;;14.77;;
68803;SDS011;55787;52.678;13.314;2023-04-15T05:39:39;37.78;;;14.98;;
68803;SDS011;55787;52.678;13.314;2023-04-15T05:42:06;32.03;;;14.32;;
68803;SDS011;55787;52.678;13.314;2023-04-15T05:44:33;33.05;;;14.02;;
68803;SDS011;55787;52.678;13.314;2023-04-15T05:47:00;34.50;;;15.05;;
68803;SDS011;55787;52.678;13.314;2023-04-15T05:49:28;30.58;;;14.02;;
68803;SDS011;55787;52.678;13.314;2023-04-15T05:51:55;32.22;;;13.52;;
68803;SDS011;55787;52.678;13.314;2023-04-15T05:54:22;29.38;;;13.02;;
68803;SDS011;55787;52.678;13.314;2023-04-15T05:56:49;26.75;;;12.70;;
68803;SDS011;55787;52.678;13.314;2023-04-15T05:59:15;29.38;;;13.93;;
68803;SDS011;55787;52.678;13.314;2023-04-15T06:01:42;31.45;;;13.75;;
68803;SDS011;55787;52.678;13.314;2023-04-15T06:04:09;26.30;;;13.23;;
68803;SDS011;55787;52.678;13.314;2023-04-15T06:06:36;27.15;;;12.85;;
68803;SDS011;55787;52.678;13.314;2023-04-15T06:09:03;27.13;;;12.95;;
68803;SDS011;55787;52.678;13.314;2023-04-15T06:11:30;27.40;;;13.13;;
68803;SDS011;55787;52.678;13.314;2023-04-15T06:13:57;24.50;;;11.95;;
68803;SDS011;55787;52.678;13.314;2023-04-15T06:16:23;23.77;;;11.57;;
68803;SDS011;55787;52.678;13.314;2023-04-15T06:18:50;23.00;;;11.45;;
68803;SDS011;55787;52.678;13.314;2023-04-15T06:21:17;23.33;;;11.77;;
68803;SDS011;55787;52.678;13.314;2023-04-15T06:23:43;22.15;;;11.02;;
68803;SDS011;55787;52.678;13.314;2023-04-15T06:26:10;24.35;;;11.77;;
68803;SDS011;55787;52.678;13.314;2023-04-15T06:28:37;22.88;;;11.07;;
68803;SDS011;55787;52.678;13.314;2023-04-15T06:31:03;22.98;;;11.48;;
68803;SDS011;55787;52.678;13.314;2023-04-15T06:33:30;21.52;;;9.93;;
68803;SDS011;55787;52.678;13.314;2023-04-15T06:35:57;20.00;;;9.90;;
68803;SDS011;55787;52.678;13.314;2023-04-15T06:38:23;20.50;;;10.85;;
68803;SDS011;55787;52.678;13.314;2023-04-15T06:40:50;21.13;;;10.07;;
68803;SDS011;55787;52.678;13.314;2023-04-15T06:43:17;18.60;;;9.75;;
68803;SDS011;55787;52.678;13.314;2023-04-15T06:45:43;19.17;;;10.18;;
68803;SDS011;55787;52.678;13.314;2023-04-15T06:48:11;17.05;;;9.57;;
68803;SDS011;55787;52.678;13.314;2023-04-15T06:50:37;17.17;;;9.13;;
68803;SDS011;55787;52.678;13.314;2023-04-15T06:53:04;16.17;;;8.70;;
68803;SDS011;55787;52.678;13.314;2023-04-15T06:55:31;18.30;;;9.23;;
68803;SDS011;55787;52.678;13.314;2023-04-15T06:57:59;16.38;;;8.65;;
68803;SDS011;55787;52.678;13.314;2023-04-15T07:00:25;15.90;;;8.77;;
68803;SDS011;55787;52.678;13.314;2023-04-15T07:02:53;16.65;;;8.32;;
68803;SDS011;55787;52.678;13.314;2023-04-15T07:05:21;15.52;;;8.00;;
68803;SDS011;55787;52.678;13.314;2023-04-15T07:07:47;16.25;;;8.63;;
68803;SDS011;55787;52.678;13.314;2023-04-15T07:10:15;16.83;;;8.40;;
68803;SDS011;55787;52.678;13.314;2023-04-15T07:12:42;15.88;;;8.68;;
68803;SDS011;55787;52.678;13.314;2023-04-15T07:15:09;16.58;;;8.75;;
68803;SDS011;55787;52.678;13.314;2023-04-15T07:17:36;14.98;;;8.43;;
68803;SDS011;55787;52.678;13.314;2023-04-15T07:20:02;16.15;;;8.73;;
68803;SDS011;55787;52.678;13.314;2023-04-15T07:22:30;15.60;;;8.63;;
68803;SDS011;55787;52.678;13.314;2023-04-15T07:24:57;16.38;;;8.48;;
68803;SDS011;55787;52.678;13.314;2023-04-15T07:27:24;16.13;;;8.90;;
68803;SDS011;55787;52.678;13.314;2023-04-15T07:29:51;16.42;;;8.95;;
68803;SDS011;55787;52.678;13.314;2023-04-15T07:32:18;18.15;;;9.18;;
68803;SDS011;55787;52.678;13.314;2023-04-15T07:34:45;17.00;;;8.63;;
68803;SDS011;55787;52.678;13.314;2023-04-15T07:37:12;16.58;;;9.00;;
68803;SDS011;55787;52.678;13.314;2023-04-15T07:39:40;18.70;;;9.57;;
68803;SDS011;55787;52.678;13.314;2023-04-15T07:42:07;17.65;;;8.88;;
68803;SDS011;55787;52.678;13.314;2023-04-15T07:44:34;21.85;;;10.27;;
68803;SDS011;55787;52.678;13.314;2023-04-15T07:47:01;17.98;;;9.07;;
68803;SDS011;55787;52.678;13.314;2023-04-15T07:49:29;16.60;;;8.80;;
68803;SDS011;55787;52.678;13.314;2023-04-15T07:51:56;17.85;;;9.40;;
68803;SDS011;55787;52.678;13.314;2023-04-15T07:54:25;21.15;;;10.20;;
68803;SDS011;55787;52.678;13.314;2023-04-15T07:56:52;18.77;;;9.55;;
68803;SDS011;55787;52.678;13.314;2023-04-15T07:59:19;18.98;;;10.00;;
68803;SDS011;55787;52.678;13.314;2023-04-15T08:01:46;18.70;;;9.63;;
68803;SDS011;55787;52.678;13.314;2023-04-15T08:04:13;19.55;;;10.55;;
68803;SDS011;55787;52.678;13.314;2023-04-15T08:06:41;18.65;;;9.52;;
68803;SDS011;55787;52.678;13.314;2023-04-15T08:09:07;21.63;;;10.15;;
68803;SDS011;55787;52.678;13.314;2023-04-15T08:11:34;17.98;;;9.40;;
68803;SDS011;55787;52.678;13.314;2023-04-15T08:14:01;19.17;;;9.50;;
68803;SDS011;55787;52.678;13.314;2023-04-15T08:16:28;18.15;;;9.85;;
68803;SDS011;55787;52.678;13.314;2023-04-15T08:18:55;16.95;;;9.40;;
68803;SDS011;55787;52.678;13.314;2023-04-15T08:21:23;18.27;;;10.00;;
68803;SDS011;55787;52.678;13.314;2023-04-15T08:23:53;17.92;;;9.48;;
68803;SDS011;55787;52.678;13.314;2023-04-15T08:26:20;18.80;;;10.05;;
68803;SDS011;55787;52.678;13.314;2023-04-15T08:28:47;17.63;;;10.10;;
68803;SDS011;55787;52.678;13.314;2023-04-15T08:31:15;18.63;;;10.30;;
68803;SDS011;55787;52.678;13.314;2023-04-15T08:33:42;17.42;;;9.73;;
68803;SDS011;55787;52.678;13.314;2023-04-15T08:36:09;16.55;;;9.55;;
68803;SDS011;55787;52.678;13.314;2023-04-15T08:38:36;16.80;;;9.45;;
68803;SDS011;55787;52.678;13.314;2023-04-15T08:41:03;17.85;;;9.68;;
68803;SDS011;55787;52.678;13.314;2023-04-15T08:43:45;17.50;;;9.73;;
68803;SDS011;55787;52.678;13.314;2023-04-15T08:46:18;18.77;;;10.05;;
68803;SDS011;55787;52.678;13.314;2023-04-15T08:48:46;19.15;;;9.55;;
68803;SDS011;55787;52.678;13.314;2023-04-15T08:51:13;17.33;;;9.57;;
68803;SDS011;55787;52.678;13.314;2023-04-15T08:53:44;17.75;;;9.40;;
68803;SDS011;55787;52.678;13.314;2023-04-15T08:56:13;17.55;;;9.05;;
68803;SDS011;55787;52.678;13.314;2023-04-15T08:58:45;18.02;;;9.73;;
68803;SDS011;55787;52.678;13.314;2023-04-15T09:01:11;16.95;;;9.50;;
68803;SDS011;55787;52.678;13.314;2023-04-15T09:03:39;17.52;;;9.73;;
68803;SDS011;55787;52.678;13.314;2023-04-15T09:06:07;18.08;;;9.35;;
68803;SDS011;55787;52.678;13.314;2023-04-15T09:08:34;17.98;;;9.55;;
68803;SDS011;55787;52.678;13.314;2023-04-15T09:11:01;18.88;;;9.52;;
68803;SDS011;55787;52.678;13.314;2023-04-15T09:13:28;18.63;;;9.63;;
68803;SDS011;55787;52.678;13.314;2023-04-15T09:15:55;18.67;;;9.23;;
68803;SDS011;55787;52.678;13.314;2023-04-15T09:18:28;18.27;;;9.23;;
68803;SDS011;55787;52.678;13.314;2023-04-15T09:21:02;17.38;;;9.23;;
68803;SDS011;55787;52.678;13.314;2023-04-15T09:23:30;19.42;;;9.85;;
68803;SDS011;55787;52.678;13.314;2023-04-15T09:25:57;17.60;;;9.48;;
68803;SDS011;55787;52.678;13.314;2023-04-15T09:28:24;19.17;;;9.05;;
68803;SDS011;55787;52.678;13.314;2023-04-15T09:30:54;18.77;;;9.68;;
68803;SDS011;55787;52.678;13.314;2023-04-15T09:33:22;16.33;;;9.43;;
68803;SDS011;55787;52.678;13.314;2023-04-15T09:38:30;20.33;;;9.55;;
68803;SDS011;55787;52.678;13.314;2023-04-15T09:40:57;17.63;;;9.35;;
68803;SDS011;55787;52.678;13.314;2023-04-15T09:43:37;17.80;;;9.30;;
68803;SDS011;55787;52.678;13.314;2023-04-15T09:46:05;18.85;;;9.32;;
68803;SDS011;55787;52.678;13.314;2023-04-15T09:48:32;19.60;;;9.63;;
68803;SDS011;55787;52.678;13.314;2023-04-15T09:50:59;16.80;;;9.43;;
68803;SDS011;55787;52.678;13.314;2023-04-15T09:53:27;17.48;;;9.43;;
68803;SDS011;55787;52.678;13.314;2023-04-15T09:55:58;18.35;;;9.70;;
68803;SDS011;55787;52.678;13.314;2023-04-15T09:58:32;16.42;;;8.90;;
68803;SDS011;55787;52.678;13.314;2023-04-15T10:01:02;18.08;;;9.23;;
68803;SDS011;55787;52.678;13.314;2023-04-15T10:03:31;16.63;;;9.10;;
68803;SDS011;55787;52.678;13.314;2023-04-15T10:06:00;16.20;;;8.82;;
68803;SDS011;55787;52.678;13.314;2023-04-15T10:08:29;16.38;;;8.65;;
68803;SDS011;55787;52.678;13.314;2023-04-15T10:10:59;17.02;;;9.10;;
68803;SDS011;55787;52.678;13.314;2023-04-15T10:13:29;18.92;;;9.25;;
68803;SDS011;55787;52.678;13.314;2023-04-15T10:16:04;18.27;;;9.35;;
68803;SDS011;55787;52.678;13.314;2023-04-15T10:18:43;19.08;;;10.00;;
68803;SDS011;55787;52.678;13.314;2023-04-15T10:21:11;17.10;;;9.07;;
68803;SDS011;55787;52.678;13.314;2023-04-15T10:23:40;17.40;;;8.63;;
68803;SDS011;55787;52.678;13.314;2023-04-15T10:26:08;17.23;;;8.68;;
68803;SDS011;55787;52.678;13.314;2023-04-15T10:28:37;17.17;;;9.68;;
68803;SDS011;55787;52.678;13.314;2023-04-15T10:31:04;18.92;;;9.48;;
68803;SDS011;55787;52.678;13.314;2023-04-15T10:33:31;18.87;;;9.90;;
68803;SDS011;55787;52.678;13.314;2023-04-15T10:35:58;18.40;;;9.55;;
68803;SDS011;55787;52.678;13.314;2023-04-15T10:41:24;18.05;;;9.45;;
68803;SDS011;55787;52.678;13.314;2023-04-15T10:43:54;18.70;;;9.90;;
68803;SDS011;55787;52.678;13.314;2023-04-15T10:49:14;16.48;;;9.05;;
68803;SDS011;55787;52.678;13.314;2023-04-15T10:51:43;16.95;;;9.57;;
68803;SDS011;55787;52.678;13.314;2023-04-15T10:56:51;17.27;;;9.35;;
68803;SDS011;55787;52.678;13.314;2023-04-15T10:59:32;18.80;;;9.35;;
68803;SDS011;55787;52.678;13.314;2023-04-15T11:02:03;19.27;;;9.25;;
68803;SDS011;55787;52.678;13.314;2023-04-15T11:12:40;20.08;;;9.70;;
68803;SDS011;55787;52.678;13.314;2023-04-15T11:20:50;18.35;;;9.85;;
68803;SDS011;55787;52.678;13.314;2023-04-15T11:23:29;18.85;;;9.75;;
68803;SDS011;55787;52.678;13.314;2023-04-15T11:26:02;19.65;;;10.40;;
68803;SDS011;55787;52.678;13.314;2023-04-15T11:28:32;18.23;;;9.73;;
68803;SDS011;55787;52.678;13.314;2023-04-15T11:31:04;18.23;;;10.05;;
68803;SDS011;55787;52.678;13.314;2023-04-15T11:33:32;18.02;;;9.90;;
68803;SDS011;55787;52.678;13.314;2023-04-15T11:35:59;18.85;;;10.73;;
68803;SDS011;55787;52.678;13.314;2023-04-15T11:38:26;19.38;;;10.85;;
68803;SDS011;55787;52.678;13.314;2023-04-15T11:40:53;17.25;;;10.02;;
68803;SDS011;55787;52.678;13.314;2023-04-15T11:43:21;20.08;;;10.45;;
68803;SDS011;55787;52.678;13.314;2023-04-15T11:48:29;20.67;;;9.65;;
68803;SDS011;55787;52.678;13.314;2023-04-15T11:51:04;19.58;;;10.07;;
68803;SDS011;55787;52.678;13.314;2023-04-15T11:53:42;18.67;;;10.10;;
68803;SDS011;55787;52.678;13.314;2023-04-15T11:56:23;20.02;;;10.57;;
68803;SDS011;55787;52.678;13.314;2023-04-15T11:58:54;17.73;;;10.05;;
68803;SDS011;55787;52.678;13.314;2023-04-15T12:04:01;17.77;;;10.38;;
68803;SDS011;55787;52.678;13.314;2023-04-15T12:06:33;17.92;;;9.07;;
68803;SDS011;55787;52.678;13.314;2023-04-15T12:09:02;18.77;;;9.52;;
68803;SDS011;55787;52.678;13.314;2023-04-15T12:16:59;18.25;;;9.82;;
68803;SDS011;55787;52.678;13.314;2023-04-15T12:19:28;18.13;;;9.40;;
68803;SDS011;55787;52.678;13.314;2023-04-15T12:22:04;18.05;;;10.18;;
68803;SDS011;55787;52.678;13.314;2023-04-15T12:24:32;18.45;;;9.10;;
68803;SDS011;55787;52.678;13.314;2023-04-15T12:29:33;18.75;;;10.27;;
68803;SDS011;55787;52.678;13.314;2023-04-15T12:34:33;19.15;;;10.13;;
68803;SDS011;55787;52.678;13.314;2023-04-15T12:37:02;21.25;;;10.73;;
68803;SDS011;55787;52.678;13.314;2023-04-15T12:39:31;20.63;;;10.82;;
68803;SDS011;55787;52.678;13.314;2023-04-15T12:42:00;18.05;;;10.20;;
68803;SDS011;55787;52.678;13.314;2023-04-15T12:44:29;18.98;;;10.50;;
68803;SDS011;55787;52.678;13.314;2023-04-15T12:46:55;18.77;;;10.57;;
68803;SDS011;55787;52.678;13.314;2023-04-15T12:49:23;16.98;;;10.02;;
68803;SDS011;55787;52.678;13.314;2023-04-15T12:51:51;19.83;;;10.30;;
68803;SDS011;55787;52.678;13.314;2023-04-15T12:54:19;18.20;;;10.70;;
68803;SDS011;55787;52.678;13.314;2023-04-15T12:56:46;20.42;;;10.73;;
68803;SDS011;55787;52.678;13.314;2023-04-15T12:59:15;20.75;;;11.23;;
68803;SDS011;55787;52.678;13.314;2023-04-15T13:01:46;19.23;;;10.65;;
68803;SDS011;55787;52.678;13.314;2023-04-15T13:04:14;20.13;;;10.70;;
68803;SDS011;55787;52.678;13.314;2023-04-15T13:06:41;20.25;;;10.38;;
68803;SDS011;55787;52.678;13.314;2023-04-15T13:09:08;18.38;;;10.05;;
68803;SDS011;55787;52.678;13.314;2023-04-15T13:11:36;20.52;;;10.63;;
68803;SDS011;55787;52.678;13.314;2023-04-15T13:14:03;18.52;;;10.32;;
68803;SDS011;55787;52.678;13.314;2023-04-15T13:16:32;19.70;;;10.15;;
68803;SDS011;55787;52.678;13.314;2023-04-15T13:18:59;21.02;;;10.85;;
68803;SDS011;55787;52.678;13.314;2023-04-15T13:21:27;21.30;;;10.18;;
68803;SDS011;55787;52.678;13.314;2023-04-15T13:23:54;19.85;;;10.55;;
68803;SDS011;55787;52.678;13.314;2023-04-15T13:26:21;18.70;;;10.43;;
68803;SDS011;55787;52.678;13.314;2023-04-15T13:28:47;20.85;;;10.50;;
68803;SDS011;55787;52.678;13.314;2023-04-15T13:31:14;18.73;;;10.57;;
68803;SDS011;55787;52.678;13.314;2023-04-15T13:33:41;18.08;;;10.18;;
68803;SDS011;55787;52.678;13.314;2023-04-15T13:36:08;18.00;;;9.68;;
68803;SDS011;55787;52.678;13.314;2023-04-15T13:38:34;18.40;;;9.98;;
68803;SDS011;55787;52.678;13.314;2023-04-15T13:41:01;18.90;;;10.30;;
68803;SDS011;55787;52.678;13.314;2023-04-15T13:43:28;19.58;;;10.20;;
68803;SDS011;55787;52.678;13.314;2023-04-15T13:45:54;20.25;;;10.50;;
68803;SDS011;55787;52.678;13.314;2023-04-15T13:48:21;19.25;;;11.10;;
68803;SDS011;55787;52.678;13.314;2023-04-15T13:50:48;19.00;;;10.35;;
68803;SDS011;55787;52.678;13.314;2023-04-15T13:53:15;19.00;;;10.07;;
68803;SDS011;55787;52.678;13.314;2023-04-15T13:55:42;19.77;;;11.05;;
68803;SDS011;55787;52.678;13.314;2023-04-15T13:58:09;18.65;;;10.32;;
68803;SDS011;55787;52.678;13.314;2023-04-15T14:00:36;19.75;;;11.50;;
68803;SDS011;55787;52.678;13.314;2023-04-15T14:03:03;20.10;;;11.07;;
68803;SDS011;55787;52.678;13.314;2023-04-15T14:05:31;19.00;;;10.95;;
68803;SDS011;55787;52.678;13.314;2023-04-15T14:07:58;20.83;;;11.45;;
68803;SDS011;55787;52.678;13.314;2023-04-15T14:10:25;21.02;;;11.45;;
68803;SDS011;55787;52.678;13.314;2023-04-15T14:12:52;20.80;;;11.75;;
68803;SDS011;55787;52.678;13.314;2023-04-15T14:15:18;20.88;;;11.60;;
68803;SDS011;55787;52.678;13.314;2023-04-15T14:17:45;21.52;;;11.30;;
68803;SDS011;55787;52.678;13.314;2023-04-15T14:20:11;20.45;;;11.73;;
68803;SDS011;55787;52.678;13.314;2023-04-15T14:22:41;20.60;;;11.85;;
68803;SDS011;55787;52.678;13.314;2023-04-15T14:25:08;19.88;;;11.60;;
68803;SDS011;55787;52.678;13.314;2023-04-15T14:27:48;21.42;;;11.45;;
68803;SDS011;55787;52.678;13.314;2023-04-15T14:30:16;20.77;;;11.07;;
68803;SDS011;55787;52.678;13.314;2023-04-15T14:32:43;22.85;;;12.60;;
68803;SDS011;55787;52.678;13.314;2023-04-15T14:35:11;20.08;;;11.00;;
68803;SDS011;55787;52.678;13.314;2023-04-15T14:37:39;19.02;;;10.98;;
68803;SDS011;55787;52.678;13.314;2023-04-15T14:40:07;18.85;;;10.70;;
68803;SDS011;55787;52.678;13.314;2023-04-15T14:42:34;21.52;;;11.25;;
68803;SDS011;55787;52.678;13.314;2023-04-15T14:45:02;20.25;;;12.15;;
68803;SDS011;55787;52.678;13.314;2023-04-15T14:47:29;19.27;;;11.18;;
68803;SDS011;55787;52.678;13.314;2023-04-15T14:49:57;19.63;;;10.75;;
68803;SDS011;55787;52.678;13.314;2023-04-15T14:52:25;19.95;;;11.02;;
68803;SDS011;55787;52.678;13.314;2023-04-15T14:54:51;20.38;;;11.18;;
68803;SDS011;55787;52.678;13.314;2023-04-15T14:57:19;20.63;;;11.68;;